Airfield :
LOGIN :

Register | Disclaimer

   EN    FR    IT 

 










Legend :    VFR   Marginal VFR   IFR   Intensive IFR   Very Intensive IFR
Visi :
Ceiling :
>= 8 km
>= 3000ft
5 to 8 km
1000 to 3000 ft
1500m to 5 km
500 to 1000 ft
800 to 1500m
200 to 500 ft
< 800m
< 200 ft
Symbols :   Thunderstorms  Fog  Heavy snow  Heavy precipitations  Wind > 20 kt
SIGMETs :     Misc.  Thunderstorms  Icing  Turbulence  Mountain Waves  Volcanic Ashes






- Airport Elevation : 584 ft


LFPV - Villacoublay Vélizy

CURRENT METAR :
  • 070630Z AUTO 31009KT 9999 OVC042 16/13 Q1025 NOSIG

EXPIRED METARs :
  • 070600Z AUTO 30007KT 9999 OVC044 15/13 Q1025 NOSIG
  • 070530Z AUTO 31008KT 9999 FEW043 14/13 Q1025 NOSIG
  • 070500Z AUTO 31008KT CAVOK 14/13 Q1025 NOSIG
  • 070430Z AUTO 31008KT CAVOK 14/13 Q1025 NOSIG
  • 070400Z AUTO 30009KT CAVOK 14/12 Q1025 NOSIG

TAF TAF LFPV
Valid from the 07 at 03:00 until the 08 at 03:00 UTC


070200Z 0703/0803 34006KT CAVOK TX25/0713Z TN14/0705Z
PROB40 0715/0718 01015G25KT



MET'MAP, your aeronautical weather chart ! - Copyright ORBIFLY December 2007 - Disclaimer

ORBIFLY MET'MAP TEAM :

Programming & Development : Alexandra Zaïnal
Original concept : Baudouin d'Aumeries
Technical & hardware support : Manuel Goepfert
Assistance : Marc-Olivier Méhu




SOURCES & CREDITS :

   NOAA